< < Back
Terminal Aerodrome Forecast


Current Version              Previous Versions:   1  2  3  4  5  6  7  8  9  

Terminal Aerodrome Forecast

053
FTUS42 KTAE 241734
TAFDHN
TAF
KDHN 241734Z 2418/2518 VRB05KT P6SM SCT040=



Latest METAR

776
SAUS70 KWBC 251900 RRF
MTRDHN
METAR KDHN 251853Z 26005KT 10SM BKN060 34/19 A3010 RMK AO2 SLP186
T03440189


USA.gov is the U.S. government's official web portal to all federal, state and local government web resources and services.